Fédération internationale de Ski
Member Section
Print

OFFICIAL RESULTS

Hemsedal (NOR) 15.12.2016

FIS - Ladies' Giant Slalom OFFICIAL RESULTS

Race codex : 5910
Valid for FIS Points : YES
1 files available



Jury
TD FIS WEISS CHRISTER SWE
Referee Ola Masdal NOR
Chief of Race Tyler Conrad USA
Technical Data
Start Altitude 1055 m.
Finish Altitude 685 m.
Vertical Drop 370 m.
Homologation Number 9911/12/10
Run 1
Course Setter Magnus Larsson SWE
Number of Gates 54
Turning Gates 51
Start Time 1000
Run 2
Course Setter Hallgeir Vognild NOR
Number of Gates 50
Turning Gates 47
Start Time 1400
 
Show more info»

Competitors

Rank Bib FIS Code Name Year Nation Run 1 Run 2 Total Time Diff. FIS Points
 1  6  506867 HAAKANSSON FERMBAECK Elsa  1998  SWE   1:15.17  1:13.75  2:28.92     19.56
 2  10  426324 MONSEN Marte  2000  NOR   1:16.34  1:13.27  2:29.61  +0.69  24.10
 3  14  185411 LUUKKO Nea  1996  FIN   1:16.18  1:13.98  2:30.16  +1.24  27.72
 4  17  426293 KUFAAS Mariel  1999  NOR   1:16.28  1:14.14  2:30.42  +1.50  29.43
 5  19  506903 STRANDBERG Ebba  1998  SWE   1:16.83  1:13.67  2:30.50  +1.58  29.96
 6  3  426262 SELVAAG Josefine  1998  NOR   1:16.08  1:14.50  2:30.58  +1.66  30.48
 7  24  506965 HENNING Emelie  1999  SWE   1:16.53  1:14.26  2:30.79  +1.87  31.87
 8  1  155586 KMOCHOVA Tereza  1990  CZE   1:16.53  1:14.84  2:31.37  +2.45  35.68
 9  4  555018 GASUNA Lelde  1990  LAT   1:17.09  1:14.30  2:31.39  +2.47  35.81
 10  15  185447 KORPIO Nella  1999  FIN   1:16.69  1:14.93  2:31.62  +2.70  37.33
 11  7  426304 RESEN Henriette  1999  NOR   1:16.98  1:14.65  2:31.63  +2.71  37.39
 12  16  705460 JANCOVA Tereza  1999  SVK   1:17.38  1:14.33  2:31.71  +2.79  37.92
 13  8  435371 WASEK Katarzyna  1996  POL   1:16.51  1:15.28  2:31.79  +2.87  38.45
 14  21  426250 SANDERBERG Fanny Cathrine  1998  NOR   1:16.12  1:15.72  2:31.84  +2.92  38.78
 15  9  506606 WEDIN Louise  1995  SWE   1:17.25  1:14.65  2:31.90  +2.98  39.17
 16  11  426131 ENGESET Eirin Linnea  1995  NOR   1:17.82  1:14.27  2:32.09  +3.17  40.42
 17  25  506890 AXELSSON Fanny  1998  SWE   1:17.75  1:14.36  2:32.11  +3.19  40.55
 18  36  426273 SAETHERENG Hannah  1999  NOR   1:17.53  1:14.72  2:32.25  +3.33  41.47
 19  26  426265 SOEFTELAND Helena Hoerte  1998  NOR   1:17.72  1:14.54  2:32.26  +3.34  41.54
 20  5  426248 EDSETH Marte Berg  1998  NOR   1:16.92  1:15.36  2:32.28  +3.36  41.67
 21  12  506860 LUTHMAN Jonna  1998  SWE   1:17.67  1:14.87  2:32.54  +3.62  43.38
 22  32  435404 KRAJEWSKA Daria  1998  POL   1:17.85  1:14.76  2:32.61  +3.69  43.84
 23  31  555036 ABOLTINA Agnese  1996  LAT   1:17.15  1:15.50  2:32.65  +3.73  44.11
 24  18  506966 FREDRICSSON Evelina  1999  SWE   1:18.28  1:14.57  2:32.85  +3.93  45.42
 25  39  426236 BEKKESTAD Kristiane  1998  NOR   1:18.37  1:14.61  2:32.98  +4.06  46.28
 26  29  426285 MAARSTOEL Andrine  1999  NOR   1:17.57  1:15.53  2:33.10  +4.18  47.07
 27  23  506822 LIFVENDAHL Lisa  1997  SWE   1:17.44  1:15.88  2:33.32  +4.40  48.52
 28  38  426254 HAMNES Ingrid  1998  NOR   1:18.36  1:15.04  2:33.40  +4.48  49.04
 29  47  426311 FALKSETE Ylva Tone  2000  NOR   1:18.28  1:15.32  2:33.60  +4.68  50.36
 30  53  705469 NEMCOVA Klaudia  2000  SVK   1:18.69  1:15.72  2:34.41  +5.49  55.69
 31  40  506874 KERVEN Michelle  1998  SWE   1:18.56  1:15.87  2:34.43  +5.51  55.82
 32  20  426216 BRAKESTAD Vilde  1997  NOR   1:18.59  1:16.27  2:34.86  +5.94  58.65
 33  34  426286 OLSEN Bertine Aam  1999  NOR   1:18.82  1:16.35  2:35.17  +6.25  60.69
 34  48  426261 SANDEGGEN Saga  1998  NOR   1:19.21  1:16.69  2:35.90  +6.98  65.49
 35  51  506882 BROWALDH Siri  1998  SWE   1:20.14  1:16.99  2:37.13  +8.21  73.59
 36  33  496222 LOPEZ Clara  1996  ESP   1:19.90  1:17.45  2:37.35  +8.43  75.04
 37  49  555035 BONDARE Liene  1996  LAT   1:19.54  1:18.15  2:37.69  +8.77  77.27
 37  44  6535771 NAWROCKI Rachel  1997  USA   1:20.10  1:17.59  2:37.69  +8.77  77.27
 39  46  426299 VARNE Bergitte  1999  NOR   1:20.26  1:17.50  2:37.76  +8.84  77.73
 40  68  426318 TELJE Elise  2000  NOR   1:19.49  1:18.29  2:37.78  +8.86  77.87
 41  61  426278 RABO Mina Sofie  1999  NOR   1:20.22  1:17.59  2:37.81  +8.89  78.06
 42  70  6536167 GILLIS Sarah  1999  USA   1:20.04  1:17.91  2:37.95  +9.03  78.98
 43  55  426277 LARSEN Andrea Skaaland  1999  NOR   1:20.16  1:17.81  2:37.97  +9.05  79.12
 44  30  6535762 LORD Madison  1997  USA   1:19.64  1:18.43  2:38.07  +9.15  79.77
 45  45  695108 KNYSH Olha  1995  UKR   1:19.96  1:18.39  2:38.35  +9.43  81.62
 46  63  435414 KALUZA Martyna  1999  POL   1:20.52  1:18.22  2:38.74  +9.82  84.18
 47  76  426247 STAVSETH Veslemoey Kihle  1998  NOR   1:20.85  1:18.35  2:39.20  +10.28  87.21
 48  65  426327 KRISTOFFERSEN Helene  2000  NOR   1:21.14  1:18.35  2:39.49  +10.57  89.12
 49  59  426172 TVIBERG Rikke  1996  NOR   1:20.42  1:19.18  2:39.60  +10.68  89.84
 50  69  426259 NAESS Martine  1998  NOR   1:21.47  1:18.78  2:40.25  +11.33  94.12
 51  66  695101 TIKUN Tetyana  1994  UKR   1:21.63  1:19.33  2:40.96  +12.04  98.79
 52  67  175056 BROENS Ida Sofie Bunsov  1999  DEN   1:21.90  1:19.13  2:41.03  +12.11  99.25
 53  54  506954 SANDBERG Clara  1999  SWE   1:22.27  1:20.09  2:42.36  +13.44  108.00
 54  82  506871 HAGERIUS Julia  1998  SWE   1:22.31  1:20.23  2:42.54  +13.62  109.19
 55  77  426281 AANDAL Marthe Toesse  1999  NOR   1:23.04  1:19.99  2:43.03  +14.11  112.41
 56  94  506996 CLEMENTSON Moa  2000  SWE   1:22.86  1:20.27  2:43.13  +14.21  113.07
 57  86  415227 GILLARD Amelia  2000  NZL   1:22.86  1:21.26  2:44.12  +15.20  119.59
 58  85  6536435 ANTONIOLI Ruby  2000  USA   1:23.47  1:20.91  2:44.38  +15.46  121.30
 59  73  175055 LARSEN Emilie  1999  DEN   1:24.02  1:20.92  2:44.94  +16.02  124.98
 60  81  426325 MELBYE Karen Tjelta  2000  NOR   1:24.00  1:20.98  2:44.98  +16.06  125.25
 61  75  426274 HERDLEVAER Marie Bartnes  1999  NOR   1:24.27  1:21.41  2:45.68  +16.76  129.85
 62  74  705435 HREHOROVA Evelyn  1996  SVK   1:24.04  1:21.85  2:45.89  +16.97  131.23
 63  93  308018 NAKACHI Maya Simkowitz  2000  JPN   1:24.22  1:21.97  2:46.19  +17.27  133.21
 64  89  405170 DIRKSEN Kaya  2000  NED   1:24.44  1:21.89  2:46.33  +17.41  134.13
 65  79  426260 RYGH Johanne  1998  NOR   1:25.50  1:23.86  2:49.36  +20.44  154.07
 66  92  6536517 NYQUIST Hanna  2000  USA   1:26.32  1:23.41  2:49.73  +20.81  156.50
 67  91  175060 CHRISTENSEN Anna Hillestad  2000  DEN   1:26.72  1:24.17  2:50.89  +21.97  164.14
 68  97  506990 ALENIUS Tova  2000  SWE   1:28.41  1:23.68  2:52.09  +23.17  172.04
 69  95  426329 TORGERSEN Mina  2000  NOR   1:28.06  1:24.69  2:52.75  +23.83  176.38
 70  99  395022 JOGEVA Anna Lotta  1999  EST   1:28.30  1:25.71  2:54.01  +25.09  184.67
 71  98  426308 KOJEN Aurora  2000  NOR   1:30.18  1:27.19  2:57.37  +28.45  206.78
 72  100  6536334 DRISCOLL Maggie  1999  USA   1:33.69  1:27.62  3:01.31  +32.39  232.71
Did not finish 2nd run
   62  506955 SIGURDSSON Linn  1999  SWE           
   56  426276 KINNEBERG Birgit  1999  NOR           
   50  426200 ANDERSEN Saskia  1997  NOR           
   43  705462 MORAVCIKOVA Sona  1999  SVK           
   42  426272 NYBERG Martine Fosmo  1999  NOR           
   28  705436 KAMENICKA Daniela  1996  SVK           
   27  426291 ROEYNSTRAND Anniken  1999  NOR           
Did not start 2nd run
   90  426275 EGGAR Katrine Groth  1999  NOR           
   57  426252 GRIMSRUD Juliane  1998  NOR           
   41  426251 GRIMSRUD Tiril  1998  NOR           
Did not finish 1st run
   88  507008 LINDBERG Vera  2000  SWE           
   84  426309 STAVSETH Emma Kihle  2000  NOR           
   83  426326 MOLTZAU Serine  2000  NOR           
   80  426316 KROGH Madeleine  2000  NOR           
   78  275038 RYAN Emma  2000  IRL           
   72  6536383 TRUDEAU Hannah  2000  USA           
   71  426270 BERGE Ylva  1999  NOR           
   58  426328 RYGH Jenny  2000  NOR           
   52  426298 OVERAAS Frida  1999  NOR           
   22  506814 GRUNDEN Matilda  1997  SWE           
   13  155503 KLICNAROVA Pavla  1988  CZE           
   2  665009 SHKANOVA Maria  1989  BLR           
Did not start 1st run
   102  426310 NORD Mia  2000  NOR           
   101  225726 GALBRAITH Helena  2000  GBR           
   96  426322 BREKKAN Johanne  2000  NOR           
   87  426314 PEDERSEN Tiril Soendervik  2000  NOR           
   64  6535925 JENSON Erica  1998  USA           
   60  426243 ROEYNSTRAND Elise  1998  NOR           
   37  496229 JIMENEZ Marta  1996  ESP           
   35  426301 HORGEN Catharina Astrup  1999  NOR